Time;durP1;ratioP1;P1;durP2;ratioP2;P2;SDS_P1;SDS_P2;PMS_P1;PMS_P2;Temp;Humidity;BMP_temperature;BMP_pressure;BME280_temperature;BME280_humidity;BME280_pressure;Samples;Min_cycle;Max_cycle;Signal;HPM_P1;HPM_P2
2023/06/28 00:01:53;;;;;;;1.60;0.38;;;;;;;19.51;88.68;100798.94;5074988;28;20091;-42
2023/06/28 00:04:20;;;;;;;1.05;0.60;;;;;;;19.51;89.00;100802.56;5074790;28;20043;-43
2023/06/28 00:06:46;;;;;;;1.63;0.82;;;;;;;19.48;89.07;100800.56;5073738;28;20056;-44
2023/06/28 00:09:13;;;;;;;1.30;1.02;;;;;;;19.44;88.80;100802.56;5073756;28;20049;-43
2023/06/28 00:11:40;;;;;;;2.60;1.40;;;;;;;19.38;89.06;100792.94;5075111;28;20043;-42
2023/06/28 00:14:07;;;;;;;2.85;1.85;;;;;;;19.33;89.15;100790.50;5073049;28;20048;-43
2023/06/28 00:16:34;;;;;;;2.42;1.77;;;;;;;19.33;89.19;100790.50;5074183;28;20044;-43
2023/06/28 00:19:00;;;;;;;2.00;1.70;;;;;;;19.35;89.29;100788.13;5073154;28;20051;-43
2023/06/28 00:21:28;;;;;;;4.15;1.83;;;;;;;19.36;89.64;100795.31;5074263;28;20469;-43
2023/06/28 00:23:54;;;;;;;2.13;1.63;;;;;;;19.37;89.46;100802.56;5073672;28;20110;-42
2023/06/28 00:26:21;;;;;;;3.78;1.98;;;;;;;19.37;89.17;100796.94;5073801;28;20044;-44
2023/06/28 00:28:48;;;;;;;4.25;2.33;;;;;;;19.33;89.66;100801.75;5072183;28;20106;-43
2023/06/28 00:31:17;;;;;;;2.85;2.22;;;;;;;19.34;89.34;100797.75;5055287;28;20044;-44
2023/06/28 00:33:44;;;;;;;2.10;1.83;;;;;;;19.34;89.26;100806.16;5074852;28;20048;-43
2023/06/28 00:36:11;;;;;;;3.63;2.22;;;;;;;19.31;89.34;100799.34;5074141;28;20045;-44
2023/06/28 00:38:38;;;;;;;5.18;2.03;;;;;;;19.28;89.55;100800.16;5056320;28;20052;-43
2023/06/28 00:41:04;;;;;;;3.28;2.15;;;;;;;19.25;89.33;100802.94;5064911;28;20387;-42
2023/06/28 00:43:31;;;;;;;7.03;3.50;;;;;;;19.23;89.52;100805.38;5072256;28;20445;-43
2023/06/28 00:45:58;;;;;;;6.47;3.15;;;;;;;19.23;89.71;100799.75;5072785;28;20402;-42
2023/06/28 00:48:24;;;;;;;3.72;2.70;;;;;;;19.21;89.67;100799.38;5073839;28;20083;-41
2023/06/28 00:50:51;;;;;;;4.65;2.63;;;;;;;19.19;89.71;100796.16;5073105;28;20037;-42
2023/06/28 00:53:18;;;;;;;3.35;2.75;;;;;;;19.17;89.87;100801.34;5074366;28;20049;-44
2023/06/28 00:55:45;;;;;;;5.00;2.67;;;;;;;19.13;89.58;100798.56;5073057;28;20124;-43
2023/06/28 00:58:12;;;;;;;6.43;3.35;;;;;;;19.07;89.68;100797.38;5073086;28;20156;-43
2023/06/28 01:00:38;;;;;;;4.15;2.53;;;;;;;19.02;89.94;100796.97;5071200;28;20051;-43
2023/06/28 01:03:06;;;;;;;3.42;2.88;;;;;;;18.97;89.92;100794.56;5073660;28;20049;-42
2023/06/28 01:05:33;;;;;;;4.57;2.22;;;;;;;18.96;89.93;100788.13;5073685;28;20052;-42
2023/06/28 01:08:00;;;;;;;5.30;2.95;;;;;;;18.95;89.93;100788.56;5073383;28;20044;-42
2023/06/28 01:10:27;;;;;;;6.13;2.90;;;;;;;18.93;89.81;100799.38;5072588;28;20133;-42
2023/06/28 01:12:54;;;;;;;3.63;1.85;;;;;;;18.79;89.95;100797.38;5072890;28;20131;-43
2023/06/28 01:15:21;;;;;;;3.15;2.13;;;;;;;18.67;90.36;100789.31;5053390;28;20044;-43
2023/06/28 01:17:50;;;;;;;6.10;2.20;;;;;;;18.60;90.66;100792.94;5073565;28;20048;-42
2023/06/28 01:20:17;;;;;;;5.38;3.15;;;;;;;18.56;90.70;100792.13;5072615;28;20048;-44
2023/06/28 01:22:53;;;;;;;3.53;1.80;;;;;;;18.53;90.77;100792.13;5073686;28;20037;-42
2023/06/28 01:25:20;;;;;;;2.15;1.75;;;;;;;18.44;90.88;100795.28;5073845;28;20041;-42
2023/06/28 01:27:48;;;;;;;1.88;1.35;;;;;;;18.46;91.04;100794.88;5073374;28;20090;-41
2023/06/28 01:30:15;;;;;;;3.10;1.50;;;;;;;18.43;90.89;100793.66;5069816;28;20135;-42
2023/06/28 01:32:43;;;;;;;1.48;1.13;;;;;;;18.41;91.13;100800.88;5052280;28;20495;-42
2023/06/28 01:35:10;;;;;;;2.05;1.80;;;;;;;18.34;91.04;100790.44;5072798;28;20043;-44
2023/06/28 01:37:39;;;;;;;5.70;1.48;;;;;;;18.29;90.96;100782.44;5073236;28;20063;-41
2023/06/28 01:40:08;;;;;;;21.73;2.65;;;;;;;18.27;91.01;100790.41;5053564;28;20044;-43
2023/06/28 01:42:36;;;;;;;4.13;1.80;;;;;;;18.22;91.23;100788.00;5066932;28;20387;-46
2023/06/28 01:45:04;;;;;;;1.17;0.70;;;;;;;18.20;91.40;100785.59;5071805;28;20044;-44
2023/06/28 01:47:31;;;;;;;3.10;0.90;;;;;;;18.21;91.54;100789.22;5072521;28;20551;-42
2023/06/28 01:49:59;;;;;;;1.98;1.02;;;;;;;18.17;91.45;100791.19;5071954;28;20401;-42
2023/06/28 01:52:26;;;;;;;1.70;0.95;;;;;;;18.13;91.18;100790.38;5071764;28;20059;-44
2023/06/28 01:54:52;;;;;;;2.60;1.17;;;;;;;18.08;91.22;100782.38;5072715;28;20127;-43
2023/06/28 01:57:19;;;;;;;1.90;1.20;;;;;;;18.06;91.37;100781.94;5071139;28;20679;-42
2023/06/28 01:59:47;;;;;;;2.65;1.05;;;;;;;18.03;91.16;100769.53;5069721;28;20064;-43
2023/06/28 02:02:14;;;;;;;3.50;1.35;;;;;;;18.05;91.51;100760.75;5051747;28;20098;-42
2023/06/28 02:04:41;;;;;;;3.15;1.40;;;;;;;18.05;91.27;100760.75;5070690;28;20486;-45
2023/06/28 02:07:07;;;;;;;2.72;1.17;;;;;;;18.07;91.29;100758.34;5052768;28;20375;-43
2023/06/28 02:09:34;;;;;;;3.58;1.40;;;;;;;18.11;91.29;100764.75;5072372;28;20052;-43
2023/06/28 02:12:01;;;;;;;1.27;1.17;;;;;;;18.13;91.06;100762.38;5071397;28;20040;-42
2023/06/28 02:14:28;;;;;;;3.78;2.10;;;;;;;18.13;90.80;100762.38;5071658;28;20044;-43
2023/06/28 02:16:54;;;;;;;2.15;1.30;;;;;;;18.13;91.05;100762.38;5072352;28;20048;-44
2023/06/28 02:19:21;;;;;;;3.33;1.75;;;;;;;18.13;90.90;100757.56;5071676;28;20102;-41
2023/06/28 02:21:48;;;;;;;4.75;2.28;;;;;;;18.16;90.74;100761.59;5070069;28;20075;-42
2023/06/28 02:24:15;;;;;;;2.78;1.65;;;;;;;18.15;90.64;100757.16;5071563;28;20119;-41
2023/06/28 02:26:42;;;;;;;3.55;1.85;;;;;;;18.13;90.72;100753.97;5071241;28;20041;-43
2023/06/28 02:29:08;;;;;;;1.55;1.45;;;;;;;18.14;90.94;100759.16;5072572;28;20064;-45
2023/06/28 02:31:35;;;;;;;3.03;1.60;;;;;;;18.10;90.63;100758.34;5072059;28;20041;-42
2023/06/28 02:34:02;;;;;;;1.80;1.55;;;;;;;18.08;90.84;100751.56;5068176;28;20069;-42
2023/06/28 02:36:29;;;;;;;2.63;1.67;;;;;;;18.06;91.04;100757.53;5068329;28;20110;-46
2023/06/28 02:38:55;;;;;;;1.80;1.52;;;;;;;18.06;90.67;100757.53;5065754;28;20037;-42
2023/06/28 02:41:22;;;;;;;8.50;3.47;;;;;;;18.01;90.43;100760.72;5069077;28;20494;-46
2023/06/28 02:43:49;;;;;;;4.05;1.67;;;;;;;17.97;90.67;100754.31;5069333;28;20171;-44
2023/06/28 02:46:15;;;;;;;2.08;1.30;;;;;;;17.96;90.70;100758.31;5069136;28;20131;-43
2023/06/28 02:48:42;;;;;;;2.35;1.92;;;;;;;17.95;90.79;100747.50;5071157;28;20044;-42
2023/06/28 02:51:09;;;;;;;3.30;1.90;;;;;;;17.90;90.50;100743.06;5068634;28;20779;-42
2023/06/28 02:53:35;;;;;;;3.05;2.15;;;;;;;17.89;90.92;100740.69;5062288;28;20114;-45
2023/06/28 02:56:02;;;;;;;4.30;1.50;;;;;;;17.87;90.68;100748.69;5054143;28;20051;-44
2023/06/28 02:58:29;;;;;;;2.50;1.67;;;;;;;17.83;90.64;100745.03;5063862;28;20056;-44
2023/06/28 03:00:57;;;;;;;4.90;2.00;;;;;;;17.76;90.78;100737.44;5078871;22;20056;-43
2023/06/28 03:03:24;;;;;;;3.42;1.70;;;;;;;17.74;90.68;100739.81;5043643;28;20049;-43
2023/06/28 03:05:51;;;;;;;2.70;1.70;;;;;;;17.71;90.88;100735.00;5050042;28;20091;-43
2023/06/28 03:08:18;;;;;;;5.75;2.45;;;;;;;17.71;90.90;100737.00;5048546;28;20075;-42
2023/06/28 03:10:46;;;;;;;2.50;2.00;;;;;;;17.70;90.86;100733.41;5039430;28;20433;-43
2023/06/28 03:13:13;;;;;;;2.78;2.38;;;;;;;17.70;91.03;100738.19;5045599;28;20446;-42
2023/06/28 03:15:40;;;;;;;3.35;2.67;;;;;;;17.70;91.08;100743.78;5048529;28;20051;-42
2023/06/28 03:18:07;;;;;;;2.80;1.55;;;;;;;17.68;90.80;100737.78;5050612;28;20119;-42
2023/06/28 03:20:34;;;;;;;2.97;1.60;;;;;;;17.66;90.92;100732.56;5050109;28;20068;-42
2023/06/28 03:23:04;;;;;;;3.67;2.13;;;;;;;17.64;90.92;100741.38;5044508;28;20078;-42
2023/06/28 03:25:31;;;;;;;2.53;1.95;;;;;;;17.61;91.02;100741.34;5045802;28;20083;-43
2023/06/28 03:27:58;;;;;;;3.13;1.23;;;;;;;17.60;90.94;100734.16;5032891;28;20033;-42
2023/06/28 03:30:24;;;;;;;2.38;1.50;;;;;;;17.63;91.13;100734.16;5047986;28;20103;-42
2023/06/28 03:32:51;;;;;;;4.05;1.80;;;;;;;17.64;90.95;100729.38;5049890;28;20455;-43
2023/06/28 03:35:18;;;;;;;3.58;1.60;;;;;;;17.67;91.07;100734.19;5044435;28;20405;-42
2023/06/28 03:37:49;;;;;;;2.55;1.35;;;;;;;17.68;90.89;100726.59;5030925;28;20051;-42
2023/06/28 03:40:16;;;;;;;2.90;1.50;;;;;;;17.68;90.90;100715.38;5028906;28;20398;-43
2023/06/28 03:42:43;;;;;;;3.92;1.70;;;;;;;17.69;90.99;100714.19;5032352;28;20502;-43
2023/06/28 03:45:10;;;;;;;2.80;1.73;;;;;;;17.67;90.88;100711.78;5050630;28;20099;-44
2023/06/28 03:47:37;;;;;;;1.90;1.40;;;;;;;17.64;90.74;100713.38;5050131;28;20102;-42
2023/06/28 03:50:04;;;;;;;3.80;1.75;;;;;;;17.64;91.04;100713.38;5051254;28;20520;-43
2023/06/28 03:52:31;;;;;;;4.15;1.60;;;;;;;17.64;90.81;100712.56;5049190;28;20168;-42
2023/06/28 03:54:57;;;;;;;4.05;1.83;;;;;;;17.66;90.88;100720.59;5049640;28;20060;-42
2023/06/28 03:57:24;;;;;;;2.80;1.42;;;;;;;17.68;90.76;100709.78;5046608;28;20049;-42
2023/06/28 03:59:51;;;;;;;1.83;1.70;;;;;;;17.70;90.84;100699.78;5048514;28;20187;-44
2023/06/28 04:02:17;;;;;;;3.08;1.88;;;;;;;17.71;90.84;100706.19;5045412;28;20053;-42
2023/06/28 04:04:44;;;;;;;6.32;2.20;;;;;;;17.72;90.82;100705.00;5048388;28;20124;-42
2023/06/28 04:07:11;;;;;;;2.22;1.70;;;;;;;17.72;90.97;100705.78;5048265;28;20064;-42
2023/06/28 04:09:38;;;;;;;2.83;1.60;;;;;;;17.75;91.09;100699.41;5048869;28;20053;-42
2023/06/28 04:12:05;;;;;;;6.00;1.90;;;;;;;17.74;91.14;100688.63;5043530;28;20037;-43
2023/06/28 04:14:32;;;;;;;2.75;1.80;;;;;;;17.75;91.04;100718.22;5048070;28;20048;-42
2023/06/28 04:17:02;;;;;;;5.50;1.77;;;;;;;17.76;91.10;100709.44;5048723;28;20087;-44
2023/06/28 04:19:28;;;;;;;3.28;2.45;;;;;;;17.76;91.32;100720.63;5046932;28;20124;-43
2023/06/28 04:21:56;;;;;;;3.92;1.40;;;;;;;17.77;91.21;100699.00;5048487;28;20398;-46
2023/06/28 04:24:22;;;;;;;3.10;1.73;;;;;;;17.78;91.40;100703.41;5045679;28;20045;-42
2023/06/28 04:26:49;;;;;;;4.93;1.65;;;;;;;17.79;91.40;100700.22;5048925;28;20071;-43
2023/06/28 04:29:16;;;;;;;2.33;1.48;;;;;;;17.81;91.41;100694.22;5047928;28;20037;-44
2023/06/28 04:31:42;;;;;;;2.33;2.08;;;;;;;17.79;91.27;100691.03;5046527;28;20144;-43
2023/06/28 04:34:09;;;;;;;2.83;1.60;;;;;;;17.78;91.43;100678.22;5047975;28;20043;-46
2023/06/28 04:36:39;;;;;;;4.47;1.60;;;;;;;17.79;91.42;100679.84;5048547;28;20478;-44
2023/06/28 04:39:07;;;;;;;2.75;1.88;;;;;;;17.79;91.51;100691.03;5044090;28;20490;-43
2023/06/28 04:41:33;;;;;;;3.25;1.98;;;;;;;17.80;91.93;100698.22;5043480;28;20042;-42
2023/06/28 04:44:00;;;;;;;2.33;1.63;;;;;;;17.82;91.94;100693.03;5046492;28;20136;-44
2023/06/28 04:46:27;;;;;;;5.90;1.60;;;;;;;17.81;91.79;100695.03;5051012;28;20049;-42
2023/06/28 04:48:55;;;;;;;3.72;2.05;;;;;;;17.79;91.78;100686.22;5051840;28;20625;-42
2023/06/28 04:51:22;;;;;;;3.25;1.73;;;;;;;17.79;91.92;100693.84;5045911;28;20090;-44
2023/06/28 04:53:50;;;;;;;2.35;1.80;;;;;;;17.81;91.81;100677.44;5054249;28;20040;-43
2023/06/28 04:56:17;;;;;;;2.42;1.90;;;;;;;17.84;91.80;100685.03;5044780;28;20049;-43
2023/06/28 04:58:44;;;;;;;2.30;1.77;;;;;;;17.84;91.93;100676.63;5048587;28;20041;-42
2023/06/28 05:01:11;;;;;;;2.92;1.85;;;;;;;17.83;91.69;100681.44;5048274;28;20140;-42
2023/06/28 05:03:41;;;;;;;2.55;1.63;;;;;;;17.86;91.76;100680.66;5051931;28;20037;-42
2023/06/28 05:06:09;;;;;;;3.30;1.52;;;;;;;17.88;91.79;100688.66;5042338;28;20033;-43
2023/06/28 05:08:36;;;;;;;2.05;1.85;;;;;;;17.91;91.72;100687.84;5050389;28;20056;-43
2023/06/28 05:11:03;;;;;;;2.42;1.88;;;;;;;17.91;91.70;100682.25;5050668;28;20791;-43
2023/06/28 05:13:30;;;;;;;5.25;1.70;;;;;;;17.92;91.94;100678.25;5048428;28;20041;-42
2023/06/28 05:15:56;;;;;;;3.08;1.60;;;;;;;17.93;91.80;100674.25;5051302;28;20037;-43
2023/06/28 05:18:23;;;;;;;3.22;1.80;;;;;;;17.93;91.70;100685.44;5051985;28;20057;-43
2023/06/28 05:20:50;;;;;;;3.15;2.03;;;;;;;17.94;91.79;100675.88;5036261;28;20049;-43
2023/06/28 05:23:18;;;;;;;4.60;1.90;;;;;;;17.92;92.03;100667.88;5053507;28;20124;-42
2023/06/28 05:25:45;;;;;;;3.72;1.90;;;;;;;17.91;92.05;100652.25;5053468;28;20049;-42
2023/06/28 05:28:14;;;;;;;3.47;2.20;;;;;;;17.93;92.05;100646.22;5051985;28;20072;-44
2023/06/28 05:30:42;;;;;;;3.35;1.80;;;;;;;17.94;92.04;100634.66;5030645;28;20076;-43
2023/06/28 05:33:10;;;;;;;2.88;1.95;;;;;;;17.96;92.02;100623.03;5053360;28;20772;-42
2023/06/28 05:35:37;;;;;;;2.28;1.67;;;;;;;17.97;91.82;100635.84;5035546;28;20363;-42
2023/06/28 05:38:06;;;;;;;6.53;2.60;;;;;;;17.97;91.87;100638.66;5051931;28;20057;-43
2023/06/28 05:40:34;;;;;;;3.58;1.92;;;;;;;17.98;91.97;100637.44;5053245;28;20110;-42
2023/06/28 05:43:01;;;;;;;2.13;1.63;;;;;;;18.01;92.09;100639.44;5053643;28;20064;-44
2023/06/28 05:45:29;;;;;;;4.22;2.10;;;;;;;18.06;91.84;100650.25;5050916;28;20064;-42
2023/06/28 05:47:57;;;;;;;2.90;2.10;;;;;;;18.13;91.87;100656.69;5050894;28;20044;-42
2023/06/28 05:50:24;;;;;;;2.33;2.00;;;;;;;18.19;91.67;100659.88;5047416;28;20045;-44
2023/06/28 05:52:51;;;;;;;5.05;2.83;;;;;;;18.22;91.94;100676.72;5047382;28;20541;-43
2023/06/28 05:55:18;;;;;;;5.70;2.05;;;;;;;18.21;91.57;100651.91;5045046;28;20046;-43
2023/06/28 05:57:45;;;;;;;3.97;2.05;;;;;;;18.20;91.61;100642.69;5050346;28;20110;-43
2023/06/28 06:00:12;;;;;;;3.35;2.40;;;;;;;18.16;91.48;100625.06;5049626;28;20046;-42
2023/06/28 06:02:39;;;;;;;4.72;1.73;;;;;;;18.15;91.70;100631.06;5049185;28;20053;-43
2023/06/28 06:05:07;;;;;;;3.10;2.20;;;;;;;18.14;91.51;100618.25;5051735;28;20398;-43
2023/06/28 06:07:39;;;;;;;3.60;2.25;;;;;;;18.15;91.44;100629.06;5051613;28;20406;-42
2023/06/28 06:10:08;;;;;;;2.72;2.00;;;;;;;18.14;91.69;100624.66;5050508;28;20041;-46
2023/06/28 06:12:36;;;;;;;2.15;1.83;;;;;;;18.17;91.64;100623.06;5049411;28;20053;-42
2023/06/28 06:15:05;;;;;;;4.15;2.00;;;;;;;18.19;91.63;100610.25;5050839;28;20055;-48
2023/06/28 06:17:32;;;;;;;3.63;2.30;;;;;;;18.24;91.63;100614.66;5047495;28;20426;-42
2023/06/28 06:20:00;;;;;;;4.13;2.85;;;;;;;18.29;91.47;100608.66;5034496;28;20196;-43
2023/06/28 06:22:28;;;;;;;3.72;2.35;;;;;;;18.35;91.57;100611.88;5044776;28;20052;-42
2023/06/28 06:24:55;;;;;;;4.30;2.30;;;;;;;18.35;91.17;100607.03;5048956;28;20048;-42
2023/06/28 06:27:21;;;;;;;6.53;2.67;;;;;;;18.39;91.29;100607.06;5049759;28;20128;-45
2023/06/28 06:29:48;;;;;;;5.65;3.25;;;;;;;18.43;91.23;100603.03;5048228;28;20397;-43
2023/06/28 06:32:15;;;;;;;4.60;2.22;;;;;;;18.44;91.39;100604.66;5049545;28;20049;-43
2023/06/28 06:34:43;;;;;;;3.63;2.33;;;;;;;18.49;91.25;100603.47;5048444;28;20048;-45
2023/06/28 06:37:12;;;;;;;5.75;3.00;;;;;;;18.50;91.20;100594.66;5041875;28;20488;-43
2023/06/28 06:39:40;;;;;;;4.18;2.55;;;;;;;18.53;91.46;100596.63;5063361;28;20102;-44
2023/06/28 06:42:07;;;;;;;3.03;2.10;;;;;;;18.54;91.02;100591.84;5060079;28;20037;-45
2023/06/28 06:44:34;;;;;;;5.50;2.22;;;;;;;18.55;90.88;100585.84;5050969;28;20160;-46
2023/06/28 06:47:02;;;;;;;6.55;1.67;;;;;;;18.55;90.62;100594.25;5034142;28;20049;-44
2023/06/28 06:49:29;;;;;;;6.22;2.40;;;;;;;18.57;90.35;100594.66;5052024;28;20141;-46
2023/06/28 06:51:56;;;;;;;3.05;2.10;;;;;;;18.59;90.71;100597.03;5051592;28;20526;-44
2023/06/28 06:54:24;;;;;;;3.88;1.98;;;;;;;18.56;90.46;100590.22;5048786;28;20045;-44
2023/06/28 06:56:51;;;;;;;3.72;2.70;;;;;;;18.58;89.99;100587.84;5046928;28;20056;-43
2023/06/28 06:59:19;;;;;;;2.85;1.98;;;;;;;18.56;89.83;100581.81;5052110;28;20494;-46
2023/06/28 07:01:46;;;;;;;1.90;1.40;;;;;;;18.55;89.89;100583.03;5050168;28;20081;-46
2023/06/28 07:04:13;;;;;;;1.20;1.10;;;;;;;18.51;89.62;100593.44;5051984;28;20039;-45
2023/06/28 07:06:40;;;;;;;2.38;1.30;;;;;;;18.51;89.88;100596.25;5051370;28;20075;-44
2023/06/28 07:09:07;;;;;;;1.77;1.40;;;;;;;18.50;90.02;100608.69;5051207;28;20045;-44
2023/06/28 07:11:34;;;;;;;1.75;0.90;;;;;;;18.48;90.20;100599.84;5049542;28;20036;-44
2023/06/28 07:14:01;;;;;;;1.83;0.90;;;;;;;18.49;90.18;100590.25;5050392;28;20043;-44
2023/06/28 07:16:28;;;;;;;2.25;1.13;;;;;;;18.49;90.25;100589.44;5048694;28;20079;-44
2023/06/28 07:18:55;;;;;;;0.98;0.88;;;;;;;18.47;90.51;100592.66;5039982;28;20099;-44
2023/06/28 07:21:22;;;;;;;2.50;1.33;;;;;;;18.47;90.87;100597.44;5045807;28;20037;-48
2023/06/28 07:23:48;;;;;;;2.30;1.20;;;;;;;18.45;90.89;100600.66;5045073;28;20041;-43
2023/06/28 07:26:15;;;;;;;2.58;1.15;;;;;;;18.51;91.24;100603.84;5043182;28;20052;-43
2023/06/28 07:28:42;;;;;;;3.22;1.40;;;;;;;18.58;91.42;100601.06;5048440;28;20098;-44
2023/06/28 07:31:09;;;;;;;1.33;1.23;;;;;;;18.64;91.06;100597.44;5046892;28;20068;-44
2023/06/28 07:33:36;;;;;;;2.83;1.15;;;;;;;18.67;91.17;100577.00;5049258;28;20053;-44
2023/06/28 07:36:03;;;;;;;2.42;1.17;;;;;;;18.67;91.41;100577.00;5047690;28;20123;-44
2023/06/28 07:38:30;;;;;;;1.58;1.33;;;;;;;18.67;91.11;100596.63;5050290;28;20051;-43
2023/06/28 07:41:02;;;;;;;3.95;1.48;;;;;;;18.64;91.26;100594.63;5048329;28;20159;-43
2023/06/28 07:43:32;;;;;;;6.47;1.70;;;;;;;18.64;91.41;100588.22;5048171;28;20142;-42
2023/06/28 07:45:59;;;;;;;3.30;1.75;;;;;;;18.65;91.45;100587.81;5042526;28;20045;-47
2023/06/28 07:48:26;;;;;;;4.07;1.40;;;;;;;18.64;91.66;100586.22;5050772;28;20052;-46
2023/06/28 07:50:56;;;;;;;3.08;1.40;;;;;;;18.61;92.01;100587.00;5049173;28;20041;-45
2023/06/28 07:53:22;;;;;;;4.05;1.42;;;;;;;18.57;91.72;100586.22;5047311;28;20044;-43
2023/06/28 07:55:49;;;;;;;4.60;1.65;;;;;;;18.58;91.78;100593.44;5047297;28;20087;-44
2023/06/28 07:58:19;;;;;;;4.03;1.98;;;;;;;18.57;92.15;100603.06;5049185;28;20040;-43
2023/06/28 08:00:46;;;;;;;3.75;1.40;;;;;;;18.56;92.06;100589.47;5045530;28;20743;-43
2023/06/28 08:03:13;;;;;;;3.05;1.60;;;;;;;18.57;92.26;100588.22;5045823;28;20049;-43
2023/06/28 08:05:40;;;;;;;2.28;1.45;;;;;;;18.55;92.36;100585.84;5050180;28;20666;-43
2023/06/28 08:08:07;;;;;;;3.38;1.40;;;;;;;18.53;92.15;100573.44;5050696;28;20055;-43
2023/06/28 08:10:34;;;;;;;1.80;1.40;;;;;;;18.51;92.47;100570.22;5043665;28;20112;-42
2023/06/28 08:13:00;;;;;;;1.30;1.17;;;;;;;18.50;92.41;100583.44;5045418;28;20049;-43
2023/06/28 08:15:27;;;;;;;3.75;2.55;;;;;;;18.50;92.68;100579.84;5048545;28;20123;-42
2023/06/28 08:17:56;;;;;;;1.60;1.45;;;;;;;18.53;92.42;100559.41;5049001;28;20686;-43
2023/06/28 08:20:23;;;;;;;1.98;1.10;;;;;;;18.59;92.39;100550.16;5051704;28;20098;-43
2023/06/28 08:22:50;;;;;;;2.92;1.20;;;;;;;18.63;92.39;100570.59;5053847;28;20441;-44
2023/06/28 08:25:17;;;;;;;5.43;1.25;;;;;;;18.71;92.28;100569.38;5051898;28;20393;-44
2023/06/28 08:27:43;;;;;;;4.30;1.40;;;;;;;18.79;92.15;100565.38;5054201;28;20055;-43
2023/06/28 08:30:11;;;;;;;1.02;0.85;;;;;;;18.85;92.00;100569.31;5054459;28;20091;-42
2023/06/28 08:32:37;;;;;;;1.90;1.40;;;;;;;18.91;91.50;100566.09;5054592;28;20099;-43
2023/06/28 08:35:05;;;;;;;2.00;1.35;;;;;;;18.94;91.49;100563.28;5052365;28;20406;-43
2023/06/28 08:37:34;;;;;;;3.00;1.15;;;;;;;18.97;91.61;100565.28;5052482;28;20468;-43
2023/06/28 08:40:01;;;;;;;4.40;1.40;;;;;;;18.95;91.37;100578.13;5020172;28;20050;-47
2023/06/28 08:42:29;;;;;;;2.78;1.30;;;;;;;18.91;91.29;100572.53;5019839;28;20140;-45
2023/06/28 08:44:59;;;;;;;3.22;1.45;;;;;;;18.89;91.41;100557.31;5032503;28;20267;-44
2023/06/28 08:47:32;;;;;;;3.03;2.13;;;;;;;18.89;91.53;100585.34;5036315;28;20136;-43
2023/06/28 08:49:59;;;;;;;2.65;1.10;;;;;;;18.77;90.65;100612.63;5054048;28;20172;-43
2023/06/28 08:52:27;;;;;;;3.28;0.40;;;;;;;18.54;90.38;100631.91;5053949;28;20037;-43
2023/06/28 08:54:56;;;;;;;0.57;0.28;;;;;;;18.31;90.32;100650.28;5043524;28;20080;-43
2023/06/28 08:57:24;;;;;;;1.73;0.17;;;;;;;18.03;89.97;100645.47;5054213;28;20552;-46
2023/06/28 08:59:51;;;;;;;0.45;0.20;;;;;;;17.79;90.36;100663.03;5053377;28;20113;-42
2023/06/28 09:02:20;;;;;;;0.52;0.10;;;;;;;17.48;89.82;100664.47;5053628;28;20049;-42
2023/06/28 09:04:48;;;;;;;1.17;0.05;;;;;;;17.15;89.85;100689.91;5051684;28;20075;-43
2023/06/28 09:07:17;;;;;;;0.52;0.10;;;;;;;16.95;90.24;100687.38;5051147;28;20086;-43
2023/06/28 09:09:48;;;;;;;1.75;0.20;;;;;;;16.85;90.24;100698.50;5051720;28;20139;-44
2023/06/28 09:12:16;;;;;;;1.15;0.10;;;;;;;16.78;90.27;100701.25;5050240;28;20045;-43
2023/06/28 09:14:43;;;;;;;1.88;0.20;;;;;;;16.74;90.33;100692.03;5043726;28;20072;-43
2023/06/28 09:17:10;;;;;;;0.10;0.00;;;;;;;16.72;90.27;100683.22;5053042;28;20098;-43
2023/06/28 09:19:40;;;;;;;0.03;0.00;;;;;;;16.69;89.72;100661.63;5053547;28;20049;-42
2023/06/28 09:22:09;;;;;;;0.63;0.00;;;;;;;16.69;89.64;100672.81;5054063;28;20044;-42
2023/06/28 09:24:37;;;;;;;0.70;0.15;;;;;;;16.82;89.83;100693.69;5052485;28;20131;-43
2023/06/28 09:27:05;;;;;;;0.75;0.10;;;;;;;16.96;89.59;100696.59;5052741;28;20172;-42
2023/06/28 09:29:32;;;;;;;0.57;0.10;;;;;;;17.05;89.26;100703.44;5052600;28;20160;-42
2023/06/28 09:32:00;;;;;;;1.55;0.10;;;;;;;17.05;89.28;100719.41;5050855;28;20128;-46
2023/06/28 09:34:27;;;;;;;0.45;0.08;;;;;;;17.06;89.13;100715.41;5018684;28;20048;-45
2023/06/28 09:36:58;;;;;;;0.32;0.20;;;;;;;17.07;89.03;100725.44;5035450;28;20048;-43
2023/06/28 09:39:25;;;;;;;0.50;0.15;;;;;;;17.07;89.04;100728.22;5053096;28;20084;-43
2023/06/28 09:41:53;;;;;;;1.38;0.20;;;;;;;17.10;88.85;100733.06;5052646;28;20099;-43
2023/06/28 09:44:29;;;;;;;2.83;0.10;;;;;;;17.10;88.73;100730.25;5048406;28;20532;-43
2023/06/28 09:47:04;;;;;;;0.13;0.13;;;;;;;17.17;88.74;100732.28;5053417;28;20052;-43
2023/06/28 09:49:31;;;;;;;0.20;0.10;;;;;;;17.30;88.76;100737.16;5053345;28;20045;-44
2023/06/28 09:52:03;;;;;;;3.63;0.40;;;;;;;17.32;88.32;100743.16;5053333;28;20079;-47
2023/06/28 09:54:34;;;;;;;;;;;;;;;17.39;88.34;100746.03;5040004;28;20455;-44
2023/06/28 09:57:02;;;;;;;0.45;0.20;;;;;;;17.58;88.33;100753.31;5052976;28;19921;-45
2023/06/28 09:59:33;;;;;;;0.40;0.30;;;;;;;17.78;87.95;100756.63;5052658;28;20128;-45
2023/06/28 10:02:08;;;;;;;1.30;0.30;;;;;;;17.91;87.73;100767.09;5050210;28;20099;-44
2023/06/28 10:04:37;;;;;;;2.35;0.22;;;;;;;18.06;87.02;100751.13;5052095;28;20053;-44
2023/06/28 10:07:06;;;;;;;0.30;0.28;;;;;;;18.17;86.84;100760.38;5051486;28;20047;-43
2023/06/28 10:09:35;;;;;;;0.93;0.45;;;;;;;18.24;86.43;100752.00;5051740;28;20467;-43
2023/06/28 10:12:13;;;;;;;0.38;0.20;;;;;;;18.30;85.87;100770.00;5043988;28;20094;-43
2023/06/28 10:14:48;;;;;;;0.80;0.15;;;;;;;18.33;85.93;100766.41;5048450;28;20049;-44
2023/06/28 10:17:16;;;;;;;1.95;0.30;;;;;;;18.37;85.61;100772.03;5050944;28;20048;-45
2023/06/28 10:19:44;;;;;;;1.00;0.70;;;;;;;18.32;85.00;100773.22;5049656;28;20128;-45
2023/06/28 10:22:12;;;;;;;1.45;0.95;;;;;;;18.32;85.10;100781.63;5052032;28;20087;-43
2023/06/28 10:24:39;;;;;;;2.88;0.35;;;;;;;18.27;85.32;100768.00;5045563;28;20048;-46
2023/06/28 10:27:06;;;;;;;2.45;0.50;;;;;;;18.21;84.73;100770.38;5032416;28;20707;-44
2023/06/28 10:29:33;;;;;;;1.88;0.20;;;;;;;18.16;84.87;100778.41;5052037;28;20691;-45
2023/06/28 10:32:01;;;;;;;1.73;0.50;;;;;;;18.02;84.26;100778.34;5052101;28;20494;-44
2023/06/28 10:34:30;;;;;;;5.10;0.57;;;;;;;17.80;84.20;100782.22;5050361;28;20036;-44
2023/06/28 10:36:57;;;;;;;1.38;0.43;;;;;;;17.68;84.24;100777.00;5051067;28;20064;-44
2023/06/28 10:39:24;;;;;;;1.95;0.50;;;;;;;17.53;84.54;100778.91;5051861;28;20052;-43
2023/06/28 10:41:55;;;;;;;0.73;0.20;;;;;;;17.45;84.69;100789.22;5051602;28;20051;-43
2023/06/28 10:44:22;;;;;;;0.77;0.20;;;;;;;17.32;84.72;100790.75;5050619;28;20155;-45
2023/06/28 10:47:16;;;;;;;1.40;0.28;;;;;;;17.21;84.87;100795.44;5051807;28;20049;-43
2023/06/28 10:50:09;;;;;;;0.77;0.20;;;;;;;17.10;84.96;100794.59;5045629;28;20502;-43
2023/06/28 10:52:48;;;;;;;2.00;0.28;;;;;;;16.99;85.15;100804.88;5049720;28;20040;-43
2023/06/28 10:55:28;;;;;;;0.20;0.20;;;;;;;16.88;85.32;100804.00;5045496;28;20073;-44
2023/06/28 10:58:11;;;;;;;1.08;0.30;;;;;;;16.68;85.27;100806.19;5027732;28;20402;-43
2023/06/28 11:00:40;;;;;;;0.88;0.25;;;;;;;16.55;85.41;100809.69;5033347;28;20069;-42
2023/06/28 11:03:07;;;;;;;0.30;0.10;;;;;;;16.58;85.86;100814.47;5051545;28;20049;-43
2023/06/28 11:05:54;;;;;;;0.70;0.32;;;;;;;16.68;85.81;100827.78;5048724;28;20049;-43
2023/06/28 11:08:36;;;;;;;1.00;0.30;;;;;;;16.78;86.01;100824.28;5049605;28;20064;-44
2023/06/28 11:11:02;;;;;;;1.13;0.32;;;;;;;16.90;85.77;100812.78;5050805;28;20049;-43
2023/06/28 11:13:42;;;;;;;4.82;0.73;;;;;;;17.03;85.71;100822.50;5049185;28;20049;-43
2023/06/28 11:16:11;;;;;;;0.60;0.32;;;;;;;17.07;85.14;100828.94;5048911;28;20132;-43
2023/06/28 11:18:39;;;;;;;1.67;0.40;;;;;;;17.16;84.97;100829.38;5051131;28;20048;-42
2023/06/28 11:21:05;;;;;;;1.15;0.20;;;;;;;17.21;84.80;100837.41;5051448;28;20040;-45
2023/06/28 11:23:40;;;;;;;1.80;0.13;;;;;;;17.18;84.86;100838.22;5044258;28;20059;-41
2023/06/28 11:26:11;;;;;;;0.35;0.30;;;;;;;17.28;84.77;100840.28;5046806;28;20041;-43
2023/06/28 11:28:48;;;;;;;1.23;0.37;;;;;;;17.41;84.75;100838.78;5050311;28;20131;-44